sensor_id;sensor_type;location;lat;lon;timestamp;P1;durP1;ratioP1;P2;durP2;ratioP2
71637;SDS011;59485;43.542;-5.676;2022-07-21T00:01:31;12.03;;;3.93;;
71637;SDS011;59485;43.542;-5.676;2022-07-21T00:03:57;9.48;;;3.83;;
71637;SDS011;59485;43.542;-5.676;2022-07-21T00:06:22;11.20;;;3.45;;
71637;SDS011;59485;43.542;-5.676;2022-07-21T00:08:48;10.43;;;3.20;;
71637;SDS011;59485;43.542;-5.676;2022-07-21T00:11:13;10.32;;;3.47;;
71637;SDS011;59485;43.542;-5.676;2022-07-21T00:13:39;10.87;;;3.90;;
71637;SDS011;59485;43.542;-5.676;2022-07-21T00:16:05;9.00;;;3.63;;
71637;SDS011;59485;43.542;-5.676;2022-07-21T00:18:31;12.23;;;3.95;;
71637;SDS011;59485;43.542;-5.676;2022-07-21T00:20:57;12.63;;;3.40;;
71637;SDS011;59485;43.542;-5.676;2022-07-21T00:23:24;13.15;;;3.92;;
71637;SDS011;59485;43.542;-5.676;2022-07-21T00:25:50;9.10;;;3.07;;
71637;SDS011;59485;43.542;-5.676;2022-07-21T00:28:16;9.52;;;3.15;;
71637;SDS011;59485;43.542;-5.676;2022-07-21T00:30:42;9.82;;;3.55;;
71637;SDS011;59485;43.542;-5.676;2022-07-21T00:33:07;11.83;;;3.70;;
71637;SDS011;59485;43.542;-5.676;2022-07-21T00:35:33;11.83;;;3.60;;
71637;SDS011;59485;43.542;-5.676;2022-07-21T00:37:59;13.20;;;2.93;;
71637;SDS011;59485;43.542;-5.676;2022-07-21T00:40:24;7.10;;;3.03;;
71637;SDS011;59485;43.542;-5.676;2022-07-21T00:42:50;10.23;;;3.10;;
71637;SDS011;59485;43.542;-5.676;2022-07-21T00:45:18;8.52;;;3.10;;
71637;SDS011;59485;43.542;-5.676;2022-07-21T00:47:44;10.87;;;4.20;;
71637;SDS011;59485;43.542;-5.676;2022-07-21T00:50:11;15.85;;;3.97;;
71637;SDS011;59485;43.542;-5.676;2022-07-21T00:52:40;14.95;;;3.40;;
71637;SDS011;59485;43.542;-5.676;2022-07-21T00:55:06;14.23;;;3.73;;
71637;SDS011;59485;43.542;-5.676;2022-07-21T00:57:36;13.27;;;4.22;;
71637;SDS011;59485;43.542;-5.676;2022-07-21T01:00:06;12.77;;;4.10;;
71637;SDS011;59485;43.542;-5.676;2022-07-21T01:02:33;18.48;;;4.25;;
71637;SDS011;59485;43.542;-5.676;2022-07-21T01:05:03;14.18;;;3.75;;
71637;SDS011;59485;43.542;-5.676;2022-07-21T01:07:30;13.17;;;4.60;;
71637;SDS011;59485;43.542;-5.676;2022-07-21T01:20:05;15.98;;;4.00;;
71637;SDS011;59485;43.542;-5.676;2022-07-21T01:22:34;17.80;;;4.80;;
71637;SDS011;59485;43.542;-5.676;2022-07-21T01:25:01;17.85;;;5.25;;
71637;SDS011;59485;43.542;-5.676;2022-07-21T01:27:28;12.15;;;4.13;;
71637;SDS011;59485;43.542;-5.676;2022-07-21T01:29:54;19.97;;;5.57;;
71637;SDS011;59485;43.542;-5.676;2022-07-21T01:32:20;20.33;;;4.97;;
71637;SDS011;59485;43.542;-5.676;2022-07-21T01:34:46;12.02;;;4.55;;
71637;SDS011;59485;43.542;-5.676;2022-07-21T01:37:12;21.07;;;5.07;;
71637;SDS011;59485;43.542;-5.676;2022-07-21T01:39:39;12.48;;;4.18;;
71637;SDS011;59485;43.542;-5.676;2022-07-21T01:42:23;18.15;;;5.05;;
71637;SDS011;59485;43.542;-5.676;2022-07-21T01:44:49;11.50;;;3.97;;
71637;SDS011;59485;43.542;-5.676;2022-07-21T01:47:15;19.35;;;4.75;;
71637;SDS011;59485;43.542;-5.676;2022-07-21T01:49:42;19.13;;;4.17;;
71637;SDS011;59485;43.542;-5.676;2022-07-21T01:52:08;16.27;;;4.07;;
71637;SDS011;59485;43.542;-5.676;2022-07-21T01:54:34;14.98;;;4.40;;
71637;SDS011;59485;43.542;-5.676;2022-07-21T01:57:00;17.97;;;4.43;;
71637;SDS011;59485;43.542;-5.676;2022-07-21T01:59:26;13.57;;;4.25;;
71637;SDS011;59485;43.542;-5.676;2022-07-21T02:01:51;14.63;;;3.87;;
71637;SDS011;59485;43.542;-5.676;2022-07-21T02:04:17;25.27;;;4.73;;
71637;SDS011;59485;43.542;-5.676;2022-07-21T02:06:43;13.43;;;3.85;;
71637;SDS011;59485;43.542;-5.676;2022-07-21T02:09:09;11.40;;;3.85;;
71637;SDS011;59485;43.542;-5.676;2022-07-21T02:11:35;11.50;;;3.20;;
71637;SDS011;59485;43.542;-5.676;2022-07-21T02:14:00;10.03;;;3.00;;
71637;SDS011;59485;43.542;-5.676;2022-07-21T02:16:26;13.85;;;3.53;;
71637;SDS011;59485;43.542;-5.676;2022-07-21T02:18:52;11.52;;;3.30;;
71637;SDS011;59485;43.542;-5.676;2022-07-21T02:21:17;9.27;;;2.93;;
71637;SDS011;59485;43.542;-5.676;2022-07-21T02:23:43;8.48;;;2.97;;
71637;SDS011;59485;43.542;-5.676;2022-07-21T02:26:09;8.40;;;2.53;;
71637;SDS011;59485;43.542;-5.676;2022-07-21T02:28:34;7.45;;;2.50;;
71637;SDS011;59485;43.542;-5.676;2022-07-21T02:31:00;8.43;;;3.07;;
71637;SDS011;59485;43.542;-5.676;2022-07-21T02:33:26;8.03;;;2.70;;
71637;SDS011;59485;43.542;-5.676;2022-07-21T02:35:51;6.07;;;2.53;;
71637;SDS011;59485;43.542;-5.676;2022-07-21T02:38:17;9.40;;;3.00;;
71637;SDS011;59485;43.542;-5.676;2022-07-21T02:40:42;9.00;;;2.53;;
71637;SDS011;59485;43.542;-5.676;2022-07-21T02:43:08;8.75;;;2.58;;
71637;SDS011;59485;43.542;-5.676;2022-07-21T02:45:33;6.23;;;2.53;;
71637;SDS011;59485;43.542;-5.676;2022-07-21T02:48:05;9.70;;;2.50;;
71637;SDS011;59485;43.542;-5.676;2022-07-21T02:50:33;8.50;;;2.78;;
71637;SDS011;59485;43.542;-5.676;2022-07-21T02:53:02;9.00;;;3.38;;
71637;SDS011;59485;43.542;-5.676;2022-07-21T02:55:34;8.50;;;2.80;;
71637;SDS011;59485;43.542;-5.676;2022-07-21T02:58:11;8.90;;;2.78;;
71637;SDS011;59485;43.542;-5.676;2022-07-21T03:00:45;9.15;;;3.00;;
71637;SDS011;59485;43.542;-5.676;2022-07-21T03:03:14;10.13;;;2.63;;
71637;SDS011;59485;43.542;-5.676;2022-07-21T03:05:40;7.67;;;3.03;;
71637;SDS011;59485;43.542;-5.676;2022-07-21T03:08:06;7.72;;;2.95;;
71637;SDS011;59485;43.542;-5.676;2022-07-21T03:10:33;7.32;;;2.70;;
71637;SDS011;59485;43.542;-5.676;2022-07-21T03:12:58;10.20;;;2.60;;
71637;SDS011;59485;43.542;-5.676;2022-07-21T03:15:24;9.98;;;3.00;;
71637;SDS011;59485;43.542;-5.676;2022-07-21T03:17:51;10.20;;;3.53;;
71637;SDS011;59485;43.542;-5.676;2022-07-21T03:20:18;14.83;;;3.37;;
71637;SDS011;59485;43.542;-5.676;2022-07-21T03:22:43;12.05;;;3.08;;
71637;SDS011;59485;43.542;-5.676;2022-07-21T03:25:09;10.30;;;3.07;;
71637;SDS011;59485;43.542;-5.676;2022-07-21T03:27:34;9.97;;;3.10;;
71637;SDS011;59485;43.542;-5.676;2022-07-21T03:30:07;11.30;;;3.03;;
71637;SDS011;59485;43.542;-5.676;2022-07-21T03:32:34;12.27;;;2.65;;
71637;SDS011;59485;43.542;-5.676;2022-07-21T03:35:00;11.02;;;2.90;;
71637;SDS011;59485;43.542;-5.676;2022-07-21T03:37:27;9.45;;;3.25;;
71637;SDS011;59485;43.542;-5.676;2022-07-21T03:39:52;8.90;;;3.00;;
71637;SDS011;59485;43.542;-5.676;2022-07-21T03:42:18;8.70;;;2.83;;
71637;SDS011;59485;43.542;-5.676;2022-07-21T03:44:44;9.60;;;2.70;;
71637;SDS011;59485;43.542;-5.676;2022-07-21T03:47:10;11.07;;;2.95;;
71637;SDS011;59485;43.542;-5.676;2022-07-21T03:49:35;9.87;;;2.70;;
71637;SDS011;59485;43.542;-5.676;2022-07-21T03:52:01;9.07;;;3.40;;
71637;SDS011;59485;43.542;-5.676;2022-07-21T03:54:26;9.60;;;2.97;;
71637;SDS011;59485;43.542;-5.676;2022-07-21T03:56:52;10.37;;;3.17;;
71637;SDS011;59485;43.542;-5.676;2022-07-21T03:59:17;9.07;;;2.80;;
71637;SDS011;59485;43.542;-5.676;2022-07-21T04:01:49;10.00;;;2.80;;
71637;SDS011;59485;43.542;-5.676;2022-07-21T04:04:15;11.95;;;3.00;;
71637;SDS011;59485;43.542;-5.676;2022-07-21T04:06:40;8.43;;;2.93;;
71637;SDS011;59485;43.542;-5.676;2022-07-21T04:09:06;9.57;;;3.10;;
71637;SDS011;59485;43.542;-5.676;2022-07-21T04:11:31;11.77;;;3.10;;
71637;SDS011;59485;43.542;-5.676;2022-07-21T04:13:57;9.27;;;2.70;;
71637;SDS011;59485;43.542;-5.676;2022-07-21T04:16:23;15.35;;;3.13;;
71637;SDS011;59485;43.542;-5.676;2022-07-21T04:18:49;11.48;;;3.55;;
71637;SDS011;59485;43.542;-5.676;2022-07-21T04:21:15;9.30;;;2.80;;
71637;SDS011;59485;43.542;-5.676;2022-07-21T04:23:40;15.40;;;3.08;;
71637;SDS011;59485;43.542;-5.676;2022-07-21T04:26:06;10.50;;;3.00;;
71637;SDS011;59485;43.542;-5.676;2022-07-21T04:28:31;14.07;;;3.13;;
71637;SDS011;59485;43.542;-5.676;2022-07-21T04:30:57;12.45;;;3.15;;
71637;SDS011;59485;43.542;-5.676;2022-07-21T04:33:22;9.87;;;3.17;;
71637;SDS011;59485;43.542;-5.676;2022-07-21T04:35:49;9.77;;;3.60;;
71637;SDS011;59485;43.542;-5.676;2022-07-21T04:38:14;12.60;;;3.57;;
71637;SDS011;59485;43.542;-5.676;2022-07-21T04:40:40;10.75;;;2.92;;
71637;SDS011;59485;43.542;-5.676;2022-07-21T04:43:06;13.80;;;3.33;;
71637;SDS011;59485;43.542;-5.676;2022-07-21T04:45:32;12.38;;;3.30;;
71637;SDS011;59485;43.542;-5.676;2022-07-21T04:47:57;14.75;;;3.00;;
71637;SDS011;59485;43.542;-5.676;2022-07-21T04:50:26;10.90;;;2.20;;
71637;SDS011;59485;43.542;-5.676;2022-07-21T04:52:53;11.27;;;2.85;;
71637;SDS011;59485;43.542;-5.676;2022-07-21T04:55:24;12.80;;;2.83;;
71637;SDS011;59485;43.542;-5.676;2022-07-21T04:57:50;9.02;;;2.83;;
71637;SDS011;59485;43.542;-5.676;2022-07-21T05:00:18;12.67;;;3.03;;
71637;SDS011;59485;43.542;-5.676;2022-07-21T05:02:47;9.40;;;2.78;;
71637;SDS011;59485;43.542;-5.676;2022-07-21T05:05:14;8.23;;;2.80;;
71637;SDS011;59485;43.542;-5.676;2022-07-21T05:07:39;8.52;;;2.60;;
71637;SDS011;59485;43.542;-5.676;2022-07-21T05:10:06;10.03;;;3.30;;
71637;SDS011;59485;43.542;-5.676;2022-07-21T05:12:32;14.70;;;3.33;;
71637;SDS011;59485;43.542;-5.676;2022-07-21T05:14:58;10.55;;;3.20;;
71637;SDS011;59485;43.542;-5.676;2022-07-21T05:17:24;12.57;;;2.70;;
71637;SDS011;59485;43.542;-5.676;2022-07-21T05:19:49;12.30;;;3.33;;
71637;SDS011;59485;43.542;-5.676;2022-07-21T05:22:16;13.27;;;3.15;;
71637;SDS011;59485;43.542;-5.676;2022-07-21T05:24:42;15.80;;;3.55;;
71637;SDS011;59485;43.542;-5.676;2022-07-21T05:27:07;10.87;;;2.90;;
71637;SDS011;59485;43.542;-5.676;2022-07-21T05:29:33;12.40;;;3.10;;
71637;SDS011;59485;43.542;-5.676;2022-07-21T05:31:58;10.07;;;2.80;;
71637;SDS011;59485;43.542;-5.676;2022-07-21T05:34:24;12.63;;;3.20;;
71637;SDS011;59485;43.542;-5.676;2022-07-21T05:36:49;12.40;;;2.90;;
71637;SDS011;59485;43.542;-5.676;2022-07-21T05:39:15;12.73;;;2.97;;
71637;SDS011;59485;43.542;-5.676;2022-07-21T05:41:40;15.23;;;3.67;;
71637;SDS011;59485;43.542;-5.676;2022-07-21T05:44:06;13.63;;;4.03;;
71637;SDS011;59485;43.542;-5.676;2022-07-21T05:46:31;14.47;;;3.30;;
71637;SDS011;59485;43.542;-5.676;2022-07-21T05:48:57;16.93;;;3.73;;
71637;SDS011;59485;43.542;-5.676;2022-07-21T05:51:22;9.57;;;3.53;;
71637;SDS011;59485;43.542;-5.676;2022-07-21T05:53:48;15.45;;;3.58;;
71637;SDS011;59485;43.542;-5.676;2022-07-21T05:56:13;15.03;;;3.80;;
71637;SDS011;59485;43.542;-5.676;2022-07-21T05:58:39;14.60;;;4.10;;
71637;SDS011;59485;43.542;-5.676;2022-07-21T06:01:04;17.13;;;3.53;;
71637;SDS011;59485;43.542;-5.676;2022-07-21T06:03:42;19.30;;;4.47;;
71637;SDS011;59485;43.542;-5.676;2022-07-21T06:06:10;19.53;;;4.50;;
71637;SDS011;59485;43.542;-5.676;2022-07-21T06:08:42;19.00;;;4.50;;
71637;SDS011;59485;43.542;-5.676;2022-07-21T06:11:09;14.20;;;4.30;;
71637;SDS011;59485;43.542;-5.676;2022-07-21T06:13:36;16.45;;;4.20;;
71637;SDS011;59485;43.542;-5.676;2022-07-21T06:16:03;18.95;;;3.65;;
71637;SDS011;59485;43.542;-5.676;2022-07-21T06:18:29;11.60;;;3.90;;
71637;SDS011;59485;43.542;-5.676;2022-07-21T06:20:54;11.80;;;3.47;;
71637;SDS011;59485;43.542;-5.676;2022-07-21T06:23:22;14.30;;;4.15;;
71637;SDS011;59485;43.542;-5.676;2022-07-21T06:25:47;13.27;;;3.47;;
71637;SDS011;59485;43.542;-5.676;2022-07-21T06:28:13;13.88;;;4.25;;
71637;SDS011;59485;43.542;-5.676;2022-07-21T06:30:39;10.02;;;3.58;;
71637;SDS011;59485;43.542;-5.676;2022-07-21T06:33:05;11.57;;;4.27;;
71637;SDS011;59485;43.542;-5.676;2022-07-21T06:35:31;10.80;;;3.92;;
71637;SDS011;59485;43.542;-5.676;2022-07-21T06:37:59;11.53;;;3.50;;
71637;SDS011;59485;43.542;-5.676;2022-07-21T06:40:25;9.90;;;2.85;;
71637;SDS011;59485;43.542;-5.676;2022-07-21T06:42:50;11.37;;;3.20;;
71637;SDS011;59485;43.542;-5.676;2022-07-21T06:45:16;13.97;;;3.37;;
71637;SDS011;59485;43.542;-5.676;2022-07-21T06:47:41;11.07;;;3.58;;
71637;SDS011;59485;43.542;-5.676;2022-07-21T06:50:07;13.17;;;3.70;;
71637;SDS011;59485;43.542;-5.676;2022-07-21T06:52:33;13.38;;;3.33;;
71637;SDS011;59485;43.542;-5.676;2022-07-21T06:55:00;12.25;;;3.88;;
71637;SDS011;59485;43.542;-5.676;2022-07-21T06:57:26;14.97;;;3.67;;
71637;SDS011;59485;43.542;-5.676;2022-07-21T06:59:51;12.17;;;3.00;;
71637;SDS011;59485;43.542;-5.676;2022-07-21T07:02:17;11.40;;;2.88;;
71637;SDS011;59485;43.542;-5.676;2022-07-21T07:04:42;15.10;;;3.23;;
71637;SDS011;59485;43.542;-5.676;2022-07-21T07:07:13;11.63;;;3.25;;
71637;SDS011;59485;43.542;-5.676;2022-07-21T07:09:39;11.27;;;3.30;;
71637;SDS011;59485;43.542;-5.676;2022-07-21T07:12:06;21.40;;;4.28;;
71637;SDS011;59485;43.542;-5.676;2022-07-21T07:14:34;14.95;;;3.60;;
71637;SDS011;59485;43.542;-5.676;2022-07-21T07:17:01;14.27;;;3.65;;
71637;SDS011;59485;43.542;-5.676;2022-07-21T07:19:27;11.50;;;4.35;;
71637;SDS011;59485;43.542;-5.676;2022-07-21T07:21:53;16.60;;;4.03;;
71637;SDS011;59485;43.542;-5.676;2022-07-21T07:24:18;11.97;;;3.57;;
71637;SDS011;59485;43.542;-5.676;2022-07-21T07:26:44;13.55;;;4.03;;
71637;SDS011;59485;43.542;-5.676;2022-07-21T07:29:10;15.67;;;4.70;;
71637;SDS011;59485;43.542;-5.676;2022-07-21T07:31:36;13.90;;;3.97;;
71637;SDS011;59485;43.542;-5.676;2022-07-21T07:34:02;14.27;;;3.83;;
71637;SDS011;59485;43.542;-5.676;2022-07-21T07:36:28;16.63;;;4.55;;
71637;SDS011;59485;43.542;-5.676;2022-07-21T07:38:55;13.82;;;4.57;;
71637;SDS011;59485;43.542;-5.676;2022-07-21T07:41:22;14.27;;;4.57;;
71637;SDS011;59485;43.542;-5.676;2022-07-21T07:43:48;10.45;;;4.63;;
71637;SDS011;59485;43.542;-5.676;2022-07-21T07:46:14;12.38;;;5.00;;
71637;SDS011;59485;43.542;-5.676;2022-07-21T07:48:40;12.70;;;5.57;;
71637;SDS011;59485;43.542;-5.676;2022-07-21T07:51:07;13.20;;;6.00;;
71637;SDS011;59485;43.542;-5.676;2022-07-21T07:53:34;11.80;;;5.82;;
71637;SDS011;59485;43.542;-5.676;2022-07-21T07:55:59;10.73;;;6.47;;
71637;SDS011;59485;43.542;-5.676;2022-07-21T07:58:25;10.97;;;5.30;;
71637;SDS011;59485;43.542;-5.676;2022-07-21T08:00:51;12.68;;;5.38;;
71637;SDS011;59485;43.542;-5.676;2022-07-21T08:03:17;11.20;;;4.97;;
71637;SDS011;59485;43.542;-5.676;2022-07-21T08:05:43;12.25;;;4.47;;
71637;SDS011;59485;43.542;-5.676;2022-07-21T08:08:08;12.43;;;4.63;;
71637;SDS011;59485;43.542;-5.676;2022-07-21T08:10:34;12.43;;;3.70;;
71637;SDS011;59485;43.542;-5.676;2022-07-21T08:13:00;13.52;;;3.67;;
71637;SDS011;59485;43.542;-5.676;2022-07-21T08:15:27;14.93;;;3.83;;
71637;SDS011;59485;43.542;-5.676;2022-07-21T08:17:53;11.30;;;4.05;;
71637;SDS011;59485;43.542;-5.676;2022-07-21T08:20:18;11.57;;;4.43;;
71637;SDS011;59485;43.542;-5.676;2022-07-21T08:22:44;16.47;;;4.63;;
71637;SDS011;59485;43.542;-5.676;2022-07-21T08:25:09;16.43;;;4.77;;
71637;SDS011;59485;43.542;-5.676;2022-07-21T08:27:35;15.35;;;4.72;;
71637;SDS011;59485;43.542;-5.676;2022-07-21T08:30:00;15.77;;;4.47;;
71637;SDS011;59485;43.542;-5.676;2022-07-21T08:32:26;13.17;;;6.27;;
71637;SDS011;59485;43.542;-5.676;2022-07-21T08:34:51;19.42;;;5.72;;
71637;SDS011;59485;43.542;-5.676;2022-07-21T08:37:19;12.17;;;4.60;;
71637;SDS011;59485;43.542;-5.676;2022-07-21T08:39:45;15.32;;;5.60;;
71637;SDS011;59485;43.542;-5.676;2022-07-21T08:42:12;16.88;;;4.90;;
71637;SDS011;59485;43.542;-5.676;2022-07-21T08:44:39;17.63;;;6.87;;
71637;SDS011;59485;43.542;-5.676;2022-07-21T08:47:04;20.90;;;5.72;;
71637;SDS011;59485;43.542;-5.676;2022-07-21T08:49:31;14.40;;;5.30;;
71637;SDS011;59485;43.542;-5.676;2022-07-21T08:51:59;16.93;;;5.13;;
71637;SDS011;59485;43.542;-5.676;2022-07-21T08:54:24;14.88;;;6.15;;
71637;SDS011;59485;43.542;-5.676;2022-07-21T08:56:50;17.87;;;4.90;;
71637;SDS011;59485;43.542;-5.676;2022-07-21T08:59:15;14.70;;;6.03;;
71637;SDS011;59485;43.542;-5.676;2022-07-21T09:01:41;13.45;;;5.32;;
71637;SDS011;59485;43.542;-5.676;2022-07-21T09:04:20;21.57;;;6.87;;
71637;SDS011;59485;43.542;-5.676;2022-07-21T09:06:50;16.95;;;6.88;;
71637;SDS011;59485;43.542;-5.676;2022-07-21T09:09:19;13.88;;;8.10;;
71637;SDS011;59485;43.542;-5.676;2022-07-21T09:11:46;17.63;;;5.90;;
71637;SDS011;59485;43.542;-5.676;2022-07-21T09:14:13;13.90;;;4.93;;
71637;SDS011;59485;43.542;-5.676;2022-07-21T09:16:48;13.63;;;4.72;;
71637;SDS011;59485;43.542;-5.676;2022-07-21T09:19:17;13.98;;;5.07;;
71637;SDS011;59485;43.542;-5.676;2022-07-21T09:21:48;14.20;;;4.70;;
71637;SDS011;59485;43.542;-5.676;2022-07-21T09:27:13;13.00;;;4.30;;
71637;SDS011;59485;43.542;-5.676;2022-07-21T09:29:46;15.48;;;4.25;;
71637;SDS011;59485;43.542;-5.676;2022-07-21T09:32:14;9.70;;;3.60;;
71637;SDS011;59485;43.542;-5.676;2022-07-21T09:34:43;11.77;;;4.13;;
71637;SDS011;59485;43.542;-5.676;2022-07-21T09:37:09;11.23;;;3.67;;
71637;SDS011;59485;43.542;-5.676;2022-07-21T09:39:45;19.73;;;4.88;;
71637;SDS011;59485;43.542;-5.676;2022-07-21T09:42:16;14.95;;;4.82;;
71637;SDS011;59485;43.542;-5.676;2022-07-21T09:44:46;17.55;;;4.57;;
71637;SDS011;59485;43.542;-5.676;2022-07-21T09:47:15;20.83;;;5.22;;
71637;SDS011;59485;43.542;-5.676;2022-07-21T09:49:42;16.97;;;4.50;;
71637;SDS011;59485;43.542;-5.676;2022-07-21T09:52:25;16.40;;;4.28;;
71637;SDS011;59485;43.542;-5.676;2022-07-21T09:55:28;11.02;;;3.70;;
71637;SDS011;59485;43.542;-5.676;2022-07-21T09:57:47;19.75;;;5.07;;
71637;SDS011;59485;43.542;-5.676;2022-07-21T10:00:14;15.97;;;4.03;;
71637;SDS011;59485;43.542;-5.676;2022-07-21T10:02:42;14.40;;;4.15;;
71637;SDS011;59485;43.542;-5.676;2022-07-21T10:07:39;16.98;;;5.07;;
71637;SDS011;59485;43.542;-5.676;2022-07-21T10:10:10;12.53;;;4.13;;
71637;SDS011;59485;43.542;-5.676;2022-07-21T10:12:37;19.85;;;5.20;;
71637;SDS011;59485;43.542;-5.676;2022-07-21T10:15:03;12.50;;;4.97;;
71637;SDS011;59485;43.542;-5.676;2022-07-21T10:17:29;16.20;;;4.15;;
71637;SDS011;59485;43.542;-5.676;2022-07-21T10:20:06;15.27;;;4.80;;
71637;SDS011;59485;43.542;-5.676;2022-07-21T10:25:22;15.98;;;4.00;;
71637;SDS011;59485;43.542;-5.676;2022-07-21T10:28:21;19.25;;;5.28;;
71637;SDS011;59485;43.542;-5.676;2022-07-21T10:30:46;15.20;;;4.20;;
71637;SDS011;59485;43.542;-5.676;2022-07-21T10:33:17;12.88;;;4.82;;
71637;SDS011;59485;43.542;-5.676;2022-07-21T10:35:46;11.52;;;4.55;;
71637;SDS011;59485;43.542;-5.676;2022-07-21T10:38:26;17.23;;;4.55;;
71637;SDS011;59485;43.542;-5.676;2022-07-21T10:40:54;12.18;;;4.88;;
71637;SDS011;59485;43.542;-5.676;2022-07-21T10:45:49;14.48;;;5.15;;
71637;SDS011;59485;43.542;-5.676;2022-07-21T10:51:13;12.95;;;4.07;;
71637;SDS011;59485;43.542;-5.676;2022-07-21T10:53:40;14.65;;;5.40;;
71637;SDS011;59485;43.542;-5.676;2022-07-21T10:56:30;10.00;;;3.90;;
71637;SDS011;59485;43.542;-5.676;2022-07-21T10:58:58;14.05;;;4.75;;
71637;SDS011;59485;43.542;-5.676;2022-07-21T11:01:24;10.70;;;3.70;;
71637;SDS011;59485;43.542;-5.676;2022-07-21T11:06:36;14.10;;;4.07;;
71637;SDS011;59485;43.542;-5.676;2022-07-21T11:11:30;19.63;;;9.00;;
71637;SDS011;59485;43.542;-5.676;2022-07-21T11:22:25;16.07;;;4.83;;
71637;SDS011;59485;43.542;-5.676;2022-07-21T11:27:30;15.07;;;5.00;;
71637;SDS011;59485;43.542;-5.676;2022-07-21T11:29:58;17.67;;;5.03;;
71637;SDS011;59485;43.542;-5.676;2022-07-21T11:32:26;16.63;;;3.80;;
71637;SDS011;59485;43.542;-5.676;2022-07-21T11:34:56;13.03;;;3.70;;
71637;SDS011;59485;43.542;-5.676;2022-07-21T11:39:58;14.77;;;4.00;;
71637;SDS011;59485;43.542;-5.676;2022-07-21T11:42:27;16.08;;;4.65;;
71637;SDS011;59485;43.542;-5.676;2022-07-21T11:44:55;16.02;;;3.85;;
71637;SDS011;59485;43.542;-5.676;2022-07-21T11:47:21;14.53;;;3.73;;
71637;SDS011;59485;43.542;-5.676;2022-07-21T11:49:51;12.68;;;3.22;;
71637;SDS011;59485;43.542;-5.676;2022-07-21T11:52:29;10.07;;;3.15;;
71637;SDS011;59485;43.542;-5.676;2022-07-21T11:54:57;14.60;;;4.05;;
71637;SDS011;59485;43.542;-5.676;2022-07-21T11:57:24;17.30;;;4.18;;
71637;SDS011;59485;43.542;-5.676;2022-07-21T11:59:51;15.30;;;4.00;;
71637;SDS011;59485;43.542;-5.676;2022-07-21T12:02:18;18.48;;;4.28;;
71637;SDS011;59485;43.542;-5.676;2022-07-21T12:10:08;15.88;;;3.97;;
71637;SDS011;59485;43.542;-5.676;2022-07-21T12:17:57;14.38;;;4.00;;
71637;SDS011;59485;43.542;-5.676;2022-07-21T12:20:28;12.23;;;4.10;;
71637;SDS011;59485;43.542;-5.676;2022-07-21T12:22:57;11.10;;;3.78;;
71637;SDS011;59485;43.542;-5.676;2022-07-21T12:25:35;19.00;;;4.90;;
71637;SDS011;59485;43.542;-5.676;2022-07-21T12:28:03;15.57;;;4.57;;
71637;SDS011;59485;43.542;-5.676;2022-07-21T12:30:37;13.30;;;4.32;;
71637;SDS011;59485;43.542;-5.676;2022-07-21T12:35:33;15.98;;;5.35;;
71637;SDS011;59485;43.542;-5.676;2022-07-21T12:38:03;11.87;;;4.83;;
71637;SDS011;59485;43.542;-5.676;2022-07-21T12:40:31;17.88;;;6.63;;
71637;SDS011;59485;43.542;-5.676;2022-07-21T12:43:09;12.90;;;4.63;;
71637;SDS011;59485;43.542;-5.676;2022-07-21T12:48:12;14.32;;;5.43;;
71637;SDS011;59485;43.542;-5.676;2022-07-21T12:53:50;17.63;;;5.22;;
71637;SDS011;59485;43.542;-5.676;2022-07-21T12:56:21;17.30;;;7.20;;
71637;SDS011;59485;43.542;-5.676;2022-07-21T12:58:52;17.98;;;5.15;;
71637;SDS011;59485;43.542;-5.676;2022-07-21T13:01:19;14.35;;;5.43;;
71637;SDS011;59485;43.542;-5.676;2022-07-21T13:03:46;30.63;;;4.97;;
71637;SDS011;59485;43.542;-5.676;2022-07-21T13:06:14;19.73;;;4.53;;
71637;SDS011;59485;43.542;-5.676;2022-07-21T13:08:41;23.98;;;5.05;;
71637;SDS011;59485;43.542;-5.676;2022-07-21T13:11:08;22.17;;;5.15;;
71637;SDS011;59485;43.542;-5.676;2022-07-21T13:13:35;24.33;;;5.65;;
71637;SDS011;59485;43.542;-5.676;2022-07-21T13:16:04;24.70;;;5.57;;
71637;SDS011;59485;43.542;-5.676;2022-07-21T13:18:31;22.33;;;5.20;;
71637;SDS011;59485;43.542;-5.676;2022-07-21T13:21:00;25.08;;;5.90;;
71637;SDS011;59485;43.542;-5.676;2022-07-21T13:23:41;17.33;;;5.35;;
71637;SDS011;59485;43.542;-5.676;2022-07-21T13:26:07;20.57;;;5.03;;
71637;SDS011;59485;43.542;-5.676;2022-07-21T13:28:33;18.80;;;5.37;;
71637;SDS011;59485;43.542;-5.676;2022-07-21T13:31:04;21.20;;;5.40;;
71637;SDS011;59485;43.542;-5.676;2022-07-21T13:33:40;22.27;;;8.68;;
71637;SDS011;59485;43.542;-5.676;2022-07-21T13:36:07;23.52;;;7.40;;
71637;SDS011;59485;43.542;-5.676;2022-07-21T13:38:36;23.80;;;6.13;;
71637;SDS011;59485;43.542;-5.676;2022-07-21T13:41:05;17.58;;;6.50;;
71637;SDS011;59485;43.542;-5.676;2022-07-21T13:43:38;28.10;;;9.13;;
71637;SDS011;59485;43.542;-5.676;2022-07-21T13:46:03;19.58;;;5.68;;
71637;SDS011;59485;43.542;-5.676;2022-07-21T13:48:29;22.20;;;5.45;;
71637;SDS011;59485;43.542;-5.676;2022-07-21T13:50:55;15.20;;;4.17;;
71637;SDS011;59485;43.542;-5.676;2022-07-21T13:53:21;19.58;;;4.72;;
71637;SDS011;59485;43.542;-5.676;2022-07-21T13:55:47;14.33;;;4.57;;
71637;SDS011;59485;43.542;-5.676;2022-07-21T13:58:12;17.02;;;5.47;;
71637;SDS011;59485;43.542;-5.676;2022-07-21T14:00:38;22.07;;;7.53;;
71637;SDS011;59485;43.542;-5.676;2022-07-21T14:03:04;20.45;;;8.40;;
71637;SDS011;59485;43.542;-5.676;2022-07-21T14:05:40;17.55;;;6.65;;
71637;SDS011;59485;43.542;-5.676;2022-07-21T14:08:06;22.20;;;6.33;;
71637;SDS011;59485;43.542;-5.676;2022-07-21T14:10:31;24.73;;;5.20;;
71637;SDS011;59485;43.542;-5.676;2022-07-21T14:12:59;21.98;;;6.75;;
71637;SDS011;59485;43.542;-5.676;2022-07-21T14:15:26;19.52;;;5.25;;
71637;SDS011;59485;43.542;-5.676;2022-07-21T14:17:51;14.27;;;5.43;;
71637;SDS011;59485;43.542;-5.676;2022-07-21T14:20:17;19.50;;;5.35;;
71637;SDS011;59485;43.542;-5.676;2022-07-21T14:22:51;22.42;;;5.72;;
71637;SDS011;59485;43.542;-5.676;2022-07-21T14:25:17;20.37;;;5.83;;
71637;SDS011;59485;43.542;-5.676;2022-07-21T14:27:43;21.27;;;6.00;;
71637;SDS011;59485;43.542;-5.676;2022-07-21T14:30:09;19.60;;;5.80;;
71637;SDS011;59485;43.542;-5.676;2022-07-21T14:32:35;21.08;;;5.60;;
71637;SDS011;59485;43.542;-5.676;2022-07-21T14:35:00;17.03;;;5.87;;
71637;SDS011;59485;43.542;-5.676;2022-07-21T14:37:26;21.08;;;6.05;;
71637;SDS011;59485;43.542;-5.676;2022-07-21T14:39:59;18.33;;;5.30;;
71637;SDS011;59485;43.542;-5.676;2022-07-21T14:42:26;21.10;;;5.95;;
71637;SDS011;59485;43.542;-5.676;2022-07-21T14:44:54;21.33;;;6.82;;
71637;SDS011;59485;43.542;-5.676;2022-07-21T14:47:19;20.53;;;6.77;;
71637;SDS011;59485;43.542;-5.676;2022-07-21T14:49:47;24.17;;;7.13;;
71637;SDS011;59485;43.542;-5.676;2022-07-21T14:52:13;20.15;;;6.63;;
71637;SDS011;59485;43.542;-5.676;2022-07-21T14:54:38;21.43;;;6.10;;
71637;SDS011;59485;43.542;-5.676;2022-07-21T14:57:04;22.20;;;7.07;;
71637;SDS011;59485;43.542;-5.676;2022-07-21T14:59:32;22.52;;;6.38;;
71637;SDS011;59485;43.542;-5.676;2022-07-21T15:02:00;20.80;;;7.45;;
71637;SDS011;59485;43.542;-5.676;2022-07-21T15:04:34;27.37;;;7.80;;
71637;SDS011;59485;43.542;-5.676;2022-07-21T15:07:06;25.42;;;7.03;;
71637;SDS011;59485;43.542;-5.676;2022-07-21T15:09:35;23.33;;;7.38;;
71637;SDS011;59485;43.542;-5.676;2022-07-21T15:12:03;18.73;;;6.90;;
71637;SDS011;59485;43.542;-5.676;2022-07-21T15:14:29;24.43;;;6.80;;
71637;SDS011;59485;43.542;-5.676;2022-07-21T15:16:55;19.23;;;7.13;;
71637;SDS011;59485;43.542;-5.676;2022-07-21T15:19:20;20.37;;;7.30;;
71637;SDS011;59485;43.542;-5.676;2022-07-21T15:21:46;19.70;;;6.30;;
71637;SDS011;59485;43.542;-5.676;2022-07-21T15:24:11;21.70;;;7.47;;
71637;SDS011;59485;43.542;-5.676;2022-07-21T15:26:37;17.07;;;7.20;;